createdAt,value
2023-02-13T00:00:39.415Z,8.43
2023-02-13T00:03:06.442Z,8.41
2023-02-13T00:05:33.516Z,8.36
2023-02-13T00:08:00.508Z,8.33
2023-02-13T00:10:27.696Z,8.31
2023-02-13T00:12:56.312Z,8.35
2023-02-13T00:15:23.271Z,8.33
2023-02-13T00:17:50.439Z,8.31
2023-02-13T00:20:17.365Z,8.31
2023-02-13T00:22:44.373Z,8.29
2023-02-13T00:25:11.570Z,8.30
2023-02-13T00:27:38.536Z,8.26
2023-02-13T00:30:06.378Z,8.25
2023-02-13T00:32:33.318Z,8.22
2023-02-13T00:35:00.328Z,8.22
2023-02-13T00:37:27.256Z,8.27
2023-02-13T00:39:54.150Z,8.26
2023-02-13T00:42:24.059Z,8.26
2023-02-13T00:44:51.111Z,8.22
2023-02-13T00:47:18.866Z,8.20
2023-02-13T00:49:45.774Z,8.13
2023-02-13T00:52:12.992Z,8.13
2023-02-13T00:54:40.102Z,8.16
2023-02-13T00:57:07.100Z,8.15
2023-02-13T00:59:34.949Z,8.15
2023-02-13T01:02:01.977Z,8.14
2023-02-13T01:04:28.940Z,8.15
2023-02-13T01:06:57.627Z,8.12
2023-02-13T01:09:25.420Z,8.12
2023-02-13T01:11:52.390Z,8.16
2023-02-13T01:14:19.380Z,8.15
2023-02-13T01:16:47.728Z,8.12
2023-02-13T01:19:14.711Z,8.13
2023-02-13T01:21:44.030Z,8.15
2023-02-13T01:24:11.011Z,8.14
2023-02-13T01:26:37.971Z,8.14
2023-02-13T01:29:05.165Z,8.14
2023-02-13T01:31:32.897Z,8.13
2023-02-13T01:34:00.409Z,8.08
2023-02-13T01:36:27.438Z,8.13
2023-02-13T01:38:57.850Z,8.14
2023-02-13T01:41:27.218Z,8.16
2023-02-13T01:43:58.752Z,8.11
2023-02-13T01:46:31.505Z,8.19
2023-02-13T01:49:14.020Z,8.16
2023-02-13T01:51:42.229Z,8.14
2023-02-13T01:54:27.275Z,8.10
2023-02-13T01:57:05.253Z,8.16
2023-02-13T01:59:41.969Z,8.12
2023-02-13T02:02:09.219Z,8.12
2023-02-13T02:04:40.246Z,8.13
2023-02-13T02:07:20.610Z,8.13
2023-02-13T02:09:51.687Z,8.09
2023-02-13T02:12:32.225Z,8.10
2023-02-13T02:15:01.774Z,8.07
2023-02-13T02:17:31.922Z,8.10
2023-02-13T02:20:30.284Z,8.10
2023-02-13T02:23:57.608Z,8.10
2023-02-13T02:26:59.827Z,8.11
2023-02-13T02:29:49.638Z,8.14
2023-02-13T02:32:37.690Z,8.12
2023-02-13T02:35:39.569Z,8.09
2023-02-13T02:38:29.870Z,8.11
2023-02-13T02:41:45.058Z,8.15
2023-02-13T02:44:42.977Z,8.12
2023-02-13T02:47:34.541Z,8.10
2023-02-13T02:50:31.020Z,8.11
2023-02-13T02:53:31.380Z,8.12
2023-02-13T02:56:31.394Z,8.08
2023-02-13T02:59:30.328Z,8.07
2023-02-13T03:02:20.283Z,8.06
2023-02-13T03:05:13.308Z,8.02
2023-02-13T03:07:40.218Z,7.96
2023-02-13T03:10:36.349Z,7.93
2023-02-13T03:13:36.210Z,7.94
2023-02-13T03:16:22.273Z,7.94
2023-02-13T03:19:15.844Z,7.93
2023-02-13T03:22:12.337Z,7.95
2023-02-13T03:25:02.242Z,7.94
2023-02-13T03:27:56.458Z,7.97
2023-02-13T03:30:49.447Z,7.88
2023-02-13T03:33:52.726Z,7.94
2023-02-13T03:36:55.965Z,7.93
2023-02-13T03:39:43.459Z,7.96
2023-02-13T03:42:45.948Z,7.97
2023-02-13T03:45:40.101Z,7.97
2023-02-13T03:48:28.173Z,7.98
2023-02-13T03:50:57.146Z,7.96
2023-02-13T03:53:26.842Z,7.94
2023-02-13T03:56:13.973Z,7.94
2023-02-13T03:59:10.698Z,7.94
2023-02-13T04:01:38.762Z,7.96
2023-02-13T04:04:19.275Z,7.99
2023-02-13T04:07:09.601Z,7.97
2023-02-13T04:09:41.194Z,7.95
2023-02-13T04:12:24.865Z,7.98
2023-02-13T04:15:18.556Z,7.95
2023-02-13T04:18:15.422Z,7.94
2023-02-13T04:20:42.401Z,7.93
2023-02-13T04:23:10.831Z,7.95
2023-02-13T04:25:41.472Z,7.95
2023-02-13T04:28:08.756Z,7.94
2023-02-13T04:30:35.906Z,7.93
2023-02-13T04:33:03.033Z,7.93
2023-02-13T04:35:30.001Z,7.97
2023-02-13T04:37:56.932Z,7.97
2023-02-13T04:40:23.875Z,7.95
2023-02-13T04:42:50.833Z,7.98
2023-02-13T04:45:17.809Z,7.98
2023-02-13T04:47:54.724Z,7.99
2023-02-13T04:50:22.469Z,7.97
2023-02-13T04:52:54.924Z,7.95
2023-02-13T04:55:23.858Z,7.95
2023-02-13T04:57:53.938Z,7.97
2023-02-13T05:00:23.154Z,7.97
2023-02-13T05:02:50.298Z,7.99
2023-02-13T05:05:17.328Z,7.96
2023-02-13T05:07:44.284Z,8.01
2023-02-13T05:10:12.534Z,7.97
2023-02-13T05:12:39.715Z,8.01
2023-02-13T05:15:07.398Z,8.01
2023-02-13T05:17:34.337Z,8.02
2023-02-13T05:20:01.288Z,7.98
2023-02-13T05:22:46.939Z,7.99
2023-02-13T05:25:13.842Z,8.00
2023-02-13T05:27:40.890Z,8.01
2023-02-13T05:30:08.352Z,8.00
2023-02-13T05:32:35.282Z,8.03
2023-02-13T05:35:04.455Z,7.99
2023-02-13T05:37:32.086Z,8.01
2023-02-13T05:39:58.985Z,8.06
2023-02-13T05:42:25.950Z,8.00
2023-02-13T05:44:52.894Z,8.02
2023-02-13T05:47:19.828Z,8.02
2023-02-13T05:49:46.765Z,8.05
2023-02-13T05:52:13.830Z,8.06
2023-02-13T05:54:40.748Z,8.07
2023-02-13T05:57:07.683Z,8.08
2023-02-13T05:59:34.614Z,8.11
2023-02-13T06:02:01.551Z,8.09
2023-02-13T06:04:28.409Z,8.06
2023-02-13T06:06:55.317Z,8.08
2023-02-13T06:09:22.271Z,8.06
2023-02-13T06:11:49.261Z,8.03
2023-02-13T06:14:16.170Z,7.96
2023-02-13T06:16:43.115Z,7.95
2023-02-13T06:19:10.125Z,7.92
2023-02-13T06:21:38.455Z,7.89
2023-02-13T06:24:06.959Z,7.88
2023-02-13T06:26:34.604Z,7.84
2023-02-13T06:29:01.510Z,7.83
2023-02-13T06:31:28.634Z,7.81
2023-02-13T06:33:55.958Z,7.81
2023-02-13T06:36:22.920Z,7.81
2023-02-13T06:38:50.006Z,7.83
2023-02-13T06:41:16.984Z,7.86
2023-02-13T06:43:43.905Z,7.88
2023-02-13T06:46:10.864Z,7.90
2023-02-13T06:48:37.809Z,7.94
2023-02-13T06:51:04.933Z,7.93
2023-02-13T06:53:31.859Z,7.95
2023-02-13T06:55:58.807Z,7.91
2023-02-13T06:58:26.690Z,7.96
2023-02-13T07:00:54.150Z,7.95
2023-02-13T07:03:21.523Z,7.94
2023-02-13T07:05:51.965Z,7.95
2023-02-13T07:08:19.331Z,7.95
2023-02-13T07:10:46.569Z,7.93
2023-02-13T07:13:13.575Z,7.94
2023-02-13T07:15:40.702Z,7.97
2023-02-13T07:18:07.664Z,8.00
2023-02-13T07:20:34.753Z,7.98
2023-02-13T07:23:04.111Z,7.98
2023-02-13T07:25:31.658Z,7.99
2023-02-13T07:28:06.295Z,7.98
2023-02-13T07:30:34.752Z,7.97
2023-02-13T07:33:03.577Z,7.97
2023-02-13T07:35:30.571Z,7.97
2023-02-13T07:37:57.774Z,7.95
2023-02-13T07:40:24.736Z,7.98
2023-02-13T07:42:51.667Z,8.00
2023-02-13T07:45:18.551Z,8.04
2023-02-13T07:47:45.444Z,8.08
2023-02-13T07:50:13.014Z,8.09
2023-02-13T07:52:39.969Z,8.12
2023-02-13T07:55:07.555Z,8.14
2023-02-13T07:57:34.719Z,8.14
2023-02-13T08:00:01.778Z,8.16
2023-02-13T08:02:38.927Z,8.20
2023-02-13T08:05:06.558Z,8.21
2023-02-13T08:07:33.817Z,8.23
2023-02-13T08:10:19.664Z,8.21
2023-02-13T08:12:46.968Z,8.22
2023-02-13T08:15:15.705Z,8.21
2023-02-13T08:17:42.664Z,8.26
2023-02-13T08:20:11.118Z,8.28
2023-02-13T08:22:39.417Z,8.31
2023-02-13T08:25:08.236Z,8.34
2023-02-13T08:27:35.455Z,8.33
2023-02-13T08:30:03.188Z,8.36
2023-02-13T08:32:30.219Z,8.34
2023-02-13T08:34:57.200Z,8.41
2023-02-13T08:37:24.716Z,8.44
2023-02-13T08:39:51.647Z,8.49
2023-02-13T08:42:18.936Z,8.52
2023-02-13T08:44:46.045Z,8.51
2023-02-13T08:47:12.977Z,8.53
2023-02-13T08:49:40.034Z,8.58
2023-02-13T08:52:06.947Z,8.61
2023-02-13T08:54:36.134Z,8.64
2023-02-13T08:57:03.747Z,8.67
2023-02-13T08:59:30.738Z,8.69
2023-02-13T09:01:58.253Z,8.73
2023-02-13T09:04:25.218Z,8.81
2023-02-13T09:06:52.284Z,8.81
2023-02-13T09:09:19.324Z,8.84
2023-02-13T09:11:46.362Z,8.83
2023-02-13T09:14:13.356Z,8.88
2023-02-13T09:16:40.384Z,8.92
2023-02-13T09:19:07.559Z,8.95
2023-02-13T09:21:35.069Z,8.97
2023-02-13T09:24:02.042Z,9.00
2023-02-13T09:26:28.984Z,9.07
2023-02-13T09:28:55.940Z,9.12
2023-02-13T09:31:24.308Z,9.16
2023-02-13T09:33:51.598Z,9.20
2023-02-13T09:36:22.580Z,9.25
2023-02-13T09:38:54.655Z,9.30
2023-02-13T09:41:36.646Z,9.35
2023-02-13T09:44:34.529Z,9.39
2023-02-13T09:47:30.417Z,9.43
2023-02-13T09:50:17.791Z,9.49
2023-02-13T09:52:46.715Z,9.51
2023-02-13T09:55:53.024Z,9.51
2023-02-13T09:58:45.855Z,9.49
2023-02-13T10:01:46.191Z,9.49
2023-02-13T10:04:52.825Z,9.51
2023-02-13T10:08:01.450Z,9.51
2023-02-13T10:10:51.504Z,9.50
2023-02-13T10:13:58.800Z,9.50
2023-02-13T10:16:35.500Z,9.54
2023-02-13T10:19:17.630Z,9.62
2023-02-13T10:21:57.127Z,9.70
2023-02-13T10:24:41.782Z,9.75
2023-02-13T10:27:23.999Z,9.80
2023-02-13T10:30:05.289Z,9.83
2023-02-13T10:33:19.396Z,9.90
2023-02-13T10:36:02.803Z,9.97
2023-02-13T10:38:40.431Z,10.01
2023-02-13T10:41:23.396Z,10.07
2023-02-13T10:44:18.970Z,10.12
2023-02-13T10:47:25.190Z,10.17
2023-02-13T10:50:11.007Z,10.17
2023-02-13T10:53:12.084Z,10.14
2023-02-13T10:56:25.313Z,10.10
2023-02-13T10:59:25.022Z,10.13
2023-02-13T11:02:19.152Z,10.19
2023-02-13T11:04:46.745Z,10.21
2023-02-13T11:07:21.597Z,10.31
2023-02-13T11:09:50.219Z,10.32
2023-02-13T11:12:34.942Z,10.32
2023-02-13T11:15:07.034Z,10.34
2023-02-13T11:17:46.690Z,10.36
2023-02-13T11:20:39.885Z,10.44
2023-02-13T11:23:31.699Z,10.51
2023-02-13T11:26:04.992Z,10.54
2023-02-13T11:28:38.244Z,10.60
2023-02-13T11:31:20.797Z,10.65
2023-02-13T11:33:48.320Z,10.71
2023-02-13T11:36:31.910Z,10.73
2023-02-13T11:39:07.192Z,10.74
2023-02-13T11:41:44.706Z,10.77
2023-02-13T11:44:30.946Z,10.77
2023-02-13T11:47:00.695Z,10.76
2023-02-13T11:49:34.244Z,10.75
2023-02-13T11:52:08.204Z,10.70
2023-02-13T11:54:39.994Z,10.67
2023-02-13T11:57:23.685Z,10.69
2023-02-13T11:59:53.608Z,10.75
2023-02-13T12:02:30.416Z,10.83
2023-02-13T12:05:22.383Z,10.85
2023-02-13T12:07:50.199Z,10.96
2023-02-13T12:10:28.106Z,11.05
2023-02-13T12:13:15.732Z,11.05
2023-02-13T12:15:44.501Z,11.04
2023-02-13T12:18:35.076Z,11.04
2023-02-13T12:21:38.341Z,11.07
2023-02-13T12:24:41.557Z,11.10
2023-02-13T12:27:32.976Z,11.15
2023-02-13T12:30:05.598Z,11.20
2023-02-13T12:32:40.727Z,11.22
2023-02-13T12:36:01.528Z,11.29
2023-02-13T12:39:00.694Z,11.31
2023-02-13T12:41:49.815Z,11.43
2023-02-13T12:44:52.130Z,11.94
2023-02-13T12:47:37.629Z,12.38
2023-02-13T12:50:17.524Z,12.67
2023-02-13T12:53:26.098Z,12.67
2023-02-13T12:56:27.341Z,12.59
2023-02-13T12:59:51.122Z,12.42
2023-02-13T13:02:44.501Z,12.31
2023-02-13T13:05:40.895Z,12.26
2023-02-13T13:08:20.794Z,12.20
2023-02-13T13:11:15.246Z,12.16
2023-02-13T13:14:05.304Z,12.13
2023-02-13T13:16:52.697Z,12.05
2023-02-13T13:19:34.219Z,12.04
2023-02-13T13:22:17.354Z,12.06
2023-02-13T13:25:27.652Z,12.05
2023-02-13T13:28:02.652Z,12.08
2023-02-13T13:30:35.579Z,12.23
2023-02-13T13:33:18.891Z,12.52
2023-02-13T13:36:19.207Z,12.91
2023-02-13T13:39:21.644Z,13.30
2023-02-13T13:42:20.510Z,13.76
2023-02-13T13:45:22.559Z,14.26
2023-02-13T13:48:07.569Z,14.56
2023-02-13T13:50:39.909Z,14.76
2023-02-13T13:53:11.017Z,14.81
2023-02-13T13:55:47.052Z,14.84
2023-02-13T13:58:46.692Z,14.95
2023-02-13T14:01:26.997Z,14.95
2023-02-13T14:03:59.797Z,15.05
2023-02-13T14:06:48.015Z,15.14
2023-02-13T14:09:27.058Z,15.08
2023-02-13T14:11:56.663Z,15.07
2023-02-13T14:14:30.580Z,15.19
2023-02-13T14:17:01.862Z,15.23
2023-02-13T14:19:40.447Z,15.22
2023-02-13T14:22:19.626Z,15.31
2023-02-13T14:24:54.844Z,15.44
2023-02-13T14:27:25.658Z,15.71
2023-02-13T14:29:52.738Z,15.87
2023-02-13T14:32:31.169Z,15.88
2023-02-13T14:35:05.347Z,15.89
2023-02-13T14:37:36.703Z,15.84
2023-02-13T14:40:15.545Z,15.86
2023-02-13T14:42:57.618Z,15.99
2023-02-13T14:45:33.416Z,16.22
2023-02-13T14:48:09.023Z,16.36
2023-02-13T14:50:50.890Z,16.37
2023-02-13T14:53:32.318Z,16.13
2023-02-13T14:56:09.413Z,15.96
2023-02-13T14:59:03.642Z,15.85
2023-02-13T15:01:35.361Z,15.73
2023-02-13T15:04:22.176Z,15.71
2023-02-13T15:06:50.904Z,15.53
2023-02-13T15:09:32.248Z,15.37
2023-02-13T15:11:59.983Z,15.23
2023-02-13T15:14:37.267Z,15.12
2023-02-13T15:17:38.637Z,14.83
2023-02-13T15:20:24.337Z,14.72
2023-02-13T15:22:52.602Z,14.47
2023-02-13T15:25:29.846Z,14.29
2023-02-13T15:27:58.667Z,14.08
2023-02-13T15:30:38.682Z,13.91
2023-02-13T15:33:19.895Z,13.71
2023-02-13T15:35:47.060Z,13.52
2023-02-13T15:38:40.331Z,13.41
2023-02-13T15:41:15.434Z,13.30
2023-02-13T15:43:45.221Z,13.23
2023-02-13T15:46:28.160Z,13.21
2023-02-13T15:48:58.253Z,13.17
2023-02-13T15:51:29.835Z,12.98
2023-02-13T15:54:03.161Z,12.87
2023-02-13T15:56:31.486Z,12.84
2023-02-13T15:59:00.150Z,12.89
2023-02-13T16:01:28.286Z,12.90
2023-02-13T16:04:06.892Z,13.04
2023-02-13T16:06:34.565Z,13.21
2023-02-13T16:09:02.150Z,13.30
2023-02-13T16:11:38.407Z,13.20
2023-02-13T16:14:30.154Z,13.05
2023-02-13T16:17:02.222Z,12.87
2023-02-13T16:19:37.373Z,12.64
2023-02-13T16:22:34.078Z,12.33
2023-02-13T16:25:14.193Z,12.03
2023-02-13T16:27:57.585Z,11.74
2023-02-13T16:30:34.440Z,11.56
2023-02-13T16:33:23.852Z,11.42
2023-02-13T16:36:17.686Z,11.46
2023-02-13T16:38:49.971Z,11.37
2023-02-13T16:41:19.941Z,11.26
2023-02-13T16:44:06.100Z,11.16
2023-02-13T16:46:39.815Z,11.16
2023-02-13T16:49:09.462Z,11.18
2023-02-13T16:52:08.495Z,11.19
2023-02-13T16:54:44.575Z,11.18
2023-02-13T16:57:14.166Z,11.14
2023-02-13T16:59:47.059Z,10.98
2023-02-13T17:02:18.894Z,10.77
2023-02-13T17:05:05.033Z,10.59
2023-02-13T17:07:35.223Z,10.42
2023-02-13T17:10:03.312Z,10.23
2023-02-13T17:12:35.124Z,10.05
2023-02-13T17:15:02.319Z,9.91
2023-02-13T17:17:32.077Z,9.83
2023-02-13T17:20:00.273Z,9.70
2023-02-13T17:22:37.840Z,9.53
2023-02-13T17:25:12.098Z,9.37
2023-02-13T17:27:39.088Z,9.26
2023-02-13T17:30:06.965Z,9.19
2023-02-13T17:32:33.890Z,9.11
2023-02-13T17:35:00.856Z,9.06
2023-02-13T17:37:28.611Z,8.99
2023-02-13T17:39:55.731Z,8.88
2023-02-13T17:42:28.841Z,8.73
2023-02-13T17:44:58.328Z,8.71
2023-02-13T17:47:26.515Z,8.57
2023-02-13T17:50:01.948Z,8.52
2023-02-13T17:52:31.956Z,8.42
2023-02-13T17:54:59.173Z,8.33
2023-02-13T17:57:26.100Z,8.31
2023-02-13T17:59:53.068Z,8.25
2023-02-13T18:02:24.503Z,8.23
2023-02-13T18:04:51.471Z,8.19
2023-02-13T18:07:21.410Z,8.15
2023-02-13T18:09:48.355Z,8.08
2023-02-13T18:12:22.216Z,8.05
2023-02-13T18:14:50.970Z,7.99
2023-02-13T18:17:19.110Z,7.93
2023-02-13T18:19:46.462Z,7.87
2023-02-13T18:22:13.443Z,7.76
2023-02-13T18:24:42.422Z,7.76
2023-02-13T18:27:11.292Z,7.70
2023-02-13T18:29:38.922Z,7.63
2023-02-13T18:32:10.163Z,7.52
2023-02-13T18:34:39.131Z,7.54
2023-02-13T18:37:07.438Z,7.48
2023-02-13T18:39:34.563Z,7.50
2023-02-13T18:42:01.861Z,7.46
2023-02-13T18:44:29.175Z,7.42
2023-02-13T18:46:56.433Z,7.35
2023-02-13T18:49:23.355Z,7.32
2023-02-13T18:51:51.025Z,7.29
2023-02-13T18:54:18.159Z,7.20
2023-02-13T18:56:45.900Z,7.12
2023-02-13T18:59:14.512Z,7.09
2023-02-13T19:01:41.555Z,7.01
2023-02-13T19:04:09.488Z,7.01
2023-02-13T19:06:40.504Z,6.99
2023-02-13T19:09:07.720Z,6.91
2023-02-13T19:11:35.643Z,6.89
2023-02-13T19:14:02.761Z,6.85
2023-02-13T19:16:35.437Z,6.79
2023-02-13T19:19:05.255Z,6.73
2023-02-13T19:21:35.803Z,6.65
2023-02-13T19:24:05.158Z,6.65
2023-02-13T19:26:32.396Z,6.60
2023-02-13T19:28:59.679Z,6.56
2023-02-13T19:31:31.875Z,6.50
2023-02-13T19:34:00.474Z,6.41
2023-02-13T19:36:29.625Z,6.40
2023-02-13T19:39:00.187Z,6.36
2023-02-13T19:41:29.038Z,6.33
2023-02-13T19:43:56.456Z,6.27
2023-02-13T19:46:26.562Z,6.24
2023-02-13T19:48:54.221Z,6.22
2023-02-13T19:51:25.265Z,6.18
2023-02-13T19:54:05.261Z,6.14
2023-02-13T19:56:34.650Z,6.11
2023-02-13T19:59:01.713Z,6.11
2023-02-13T20:01:29.637Z,6.11
2023-02-13T20:03:57.534Z,6.03
2023-02-13T20:06:30.137Z,6.03
2023-02-13T20:08:59.755Z,6.03
2023-02-13T20:11:27.003Z,6.03
2023-02-13T20:13:56.404Z,6.06
2023-02-13T20:16:24.000Z,6.06
2023-02-13T20:18:51.223Z,6.06
2023-02-13T20:21:19.256Z,6.07
2023-02-13T20:23:52.556Z,6.01
2023-02-13T20:26:20.464Z,6.01
2023-02-13T20:28:48.210Z,5.99
2023-02-13T20:31:21.326Z,5.98
2023-02-13T20:33:50.512Z,5.98
2023-02-13T20:36:21.230Z,6.01
2023-02-13T20:38:50.266Z,5.95
2023-02-13T20:41:20.828Z,5.89
2023-02-13T20:43:48.667Z,5.83
2023-02-13T20:46:16.199Z,5.78
2023-02-13T20:48:46.490Z,5.73
2023-02-13T20:51:16.722Z,5.68
2023-02-13T20:53:46.050Z,5.68
2023-02-13T20:56:17.138Z,5.64
2023-02-13T20:58:46.202Z,5.64
2023-02-13T21:01:15.343Z,5.62
2023-02-13T21:03:42.677Z,5.59
2023-02-13T21:06:10.493Z,5.56
2023-02-13T21:08:38.144Z,5.52
2023-02-13T21:11:07.721Z,5.51
2023-02-13T21:13:35.545Z,5.49
2023-02-13T21:16:17.565Z,5.46
2023-02-13T21:18:47.745Z,5.45
2023-02-13T21:21:16.312Z,5.46
2023-02-13T21:23:43.472Z,5.46
2023-02-13T21:26:16.845Z,5.42
2023-02-13T21:28:48.681Z,5.36
2023-02-13T21:31:29.010Z,5.36
2023-02-13T21:34:02.978Z,5.33
2023-02-13T21:36:30.715Z,5.27
2023-02-13T21:38:58.011Z,5.29
2023-02-13T21:41:25.366Z,5.30
2023-02-13T21:43:52.390Z,5.31
2023-02-13T21:46:26.115Z,5.29
2023-02-13T21:48:56.912Z,5.28
2023-02-13T21:51:26.969Z,5.26
2023-02-13T21:53:54.868Z,5.23
2023-02-13T21:56:25.964Z,5.18
2023-02-13T21:58:53.627Z,5.14
2023-02-13T22:01:31.546Z,5.08
2023-02-13T22:04:01.693Z,5.00
2023-02-13T22:06:31.445Z,4.89
2023-02-13T22:09:02.561Z,4.81
2023-02-13T22:11:30.017Z,4.74
2023-02-13T22:14:02.405Z,4.75
2023-02-13T22:16:35.919Z,4.72
2023-02-13T22:19:03.912Z,4.64
2023-02-13T22:21:32.702Z,4.59
2023-02-13T22:27:16.135Z,4.45
2023-02-13T22:29:43.163Z,4.52
2023-02-13T22:32:10.256Z,4.49
2023-02-13T22:34:37.270Z,4.46
2023-02-13T22:37:04.181Z,4.44
2023-02-13T22:39:31.106Z,4.42
2023-02-13T22:41:58.076Z,4.42
2023-02-13T22:44:24.995Z,4.42
2023-02-13T22:46:51.880Z,4.43
2023-02-13T22:49:18.769Z,4.42
2023-02-13T22:51:45.667Z,4.40
2023-02-13T22:54:12.725Z,4.40
2023-02-13T22:56:39.691Z,4.41
2023-02-13T22:59:06.711Z,4.39
2023-02-13T23:01:33.643Z,4.37
2023-02-13T23:04:00.666Z,4.36
2023-02-13T23:06:28.424Z,4.37
2023-02-13T23:08:56.215Z,4.32
2023-02-13T23:11:45.452Z,4.20
2023-02-13T23:14:13.560Z,4.16
2023-02-13T23:17:00.036Z,4.06
2023-02-13T23:19:29.740Z,3.95
2023-02-13T23:21:58.350Z,3.89
2023-02-13T23:24:25.446Z,3.84
2023-02-13T23:26:52.342Z,3.82
2023-02-13T23:29:19.492Z,3.82
2023-02-13T23:31:46.575Z,3.80
2023-02-13T23:34:13.575Z,3.74
2023-02-13T23:36:40.531Z,3.71
2023-02-13T23:39:07.488Z,3.67
2023-02-13T23:41:34.459Z,3.64
2023-02-13T23:44:01.402Z,3.60
2023-02-13T23:46:28.433Z,3.63
2023-02-13T23:48:55.403Z,3.62
2023-02-13T23:51:23.293Z,3.58
2023-02-13T23:53:53.080Z,3.60
2023-02-13T23:56:20.040Z,3.60
2023-02-13T23:58:46.949Z,3.60
